createdAt,value
2018-09-11T00:02:12.585Z,97903.53
2018-09-11T00:07:07.461Z,97899.50
2018-09-11T00:12:02.368Z,97893.09
2018-09-11T00:16:57.311Z,97895.25
2018-09-11T00:21:52.222Z,97894.30
2018-09-11T00:26:47.118Z,97897.82
2018-09-11T00:31:42.166Z,97893.27
2018-09-11T00:36:37.121Z,97889.25
2018-09-11T00:41:31.989Z,97888.81
2018-09-11T00:46:26.861Z,97900.58
2018-09-11T00:51:21.736Z,97898.00
2018-09-11T00:56:16.585Z,97902.64
2018-09-11T01:01:11.558Z,97902.04
2018-09-11T01:06:06.490Z,97912.08
2018-09-11T01:11:01.358Z,97914.38
2018-09-11T01:15:56.242Z,97906.95
2018-09-11T01:20:51.197Z,97907.77
2018-09-11T01:25:46.087Z,97911.50
2018-09-11T01:30:41.046Z,97912.10
2018-09-11T01:35:35.925Z,97918.14
2018-09-11T01:40:30.836Z,97918.83
2018-09-11T01:45:25.811Z,97917.52
2018-09-11T01:50:20.687Z,97911.44
2018-09-11T01:55:15.577Z,97915.38
2018-09-11T02:00:20.273Z,97914.66
2018-09-11T02:05:15.159Z,97907.80
2018-09-11T02:10:09.976Z,97917.77
2018-09-11T02:15:04.893Z,97907.12
2018-09-11T02:19:59.711Z,97900.39
2018-09-11T02:24:54.486Z,97891.48
2018-09-11T02:29:49.251Z,97889.89
2018-09-11T02:34:43.990Z,97888.64
2018-09-11T02:39:38.879Z,97888.54
2018-09-11T02:44:33.766Z,97890.58
2018-09-11T02:49:28.618Z,97888.75
2018-09-11T02:54:23.471Z,97899.66
2018-09-11T02:59:18.397Z,97893.66
2018-09-11T03:04:13.249Z,97893.91
2018-09-11T03:09:08.265Z,97894.60
2018-09-11T03:14:03.129Z,97900.76
2018-09-11T03:18:58.003Z,97898.48
2018-09-11T03:23:52.938Z,97905.81
2018-09-11T03:28:47.934Z,97909.07
2018-09-11T03:33:42.781Z,97913.00
2018-09-11T03:38:37.673Z,97920.72
2018-09-11T03:43:32.593Z,97921.56
2018-09-11T03:48:27.437Z,97918.19
2018-09-11T03:53:22.296Z,97917.48
2018-09-11T03:58:18.241Z,97925.98
2018-09-11T04:03:13.165Z,97917.48
2018-09-11T04:08:08.030Z,97921.58
2018-09-11T04:13:02.874Z,97920.61
2018-09-11T04:17:57.801Z,97915.81
2018-09-11T04:22:52.715Z,97919.87
2018-09-11T04:27:47.579Z,97927.92
2018-09-11T04:32:43.395Z,97929.34
2018-09-11T04:37:38.241Z,97934.87
2018-09-11T04:42:33.147Z,97936.81
2018-09-11T04:47:28.179Z,97939.09
2018-09-11T04:52:23.082Z,97944.08
2018-09-11T04:57:17.989Z,97954.31
2018-09-11T05:02:12.864Z,97966.30
2018-09-11T05:07:08.079Z,97965.02
2018-09-11T05:12:03.025Z,97973.01
2018-09-11T05:16:57.858Z,97981.08
2018-09-11T05:21:52.897Z,97986.48
2018-09-11T05:26:47.790Z,97987.68
2018-09-11T05:31:42.666Z,97994.41
2018-09-11T05:36:37.570Z,97990.43
2018-09-11T05:41:32.462Z,98005.98
2018-09-11T05:46:27.294Z,98008.90
2018-09-11T05:51:22.221Z,98016.55
2018-09-11T05:56:17.057Z,98020.74
2018-09-11T06:01:11.929Z,98020.75
2018-09-11T06:06:06.834Z,98021.50
2018-09-11T06:11:01.689Z,98026.47
2018-09-11T06:15:56.434Z,98034.26
2018-09-11T06:20:51.241Z,98034.27
2018-09-11T06:25:46.111Z,98036.98
2018-09-11T06:30:40.942Z,98041.89
2018-09-11T06:35:35.857Z,98031.76
2018-09-11T06:40:30.813Z,98047.03
2018-09-11T06:45:25.723Z,98047.23
2018-09-11T06:50:20.638Z,98050.81
2018-09-11T06:55:15.905Z,98055.61
2018-09-11T07:00:10.840Z,98055.42
2018-09-11T07:05:05.806Z,98057.98
2018-09-11T07:10:00.673Z,98053.56
2018-09-11T07:14:55.538Z,98059.55
2018-09-11T07:19:50.549Z,98053.66
2018-09-11T07:24:45.430Z,98063.28
2018-09-11T07:29:40.387Z,98056.47
2018-09-11T07:34:35.393Z,98051.78
2018-09-11T07:39:30.278Z,98050.42
2018-09-11T07:44:25.483Z,98050.83
2018-09-11T07:49:20.310Z,98061.62
2018-09-11T07:54:15.231Z,98071.01
2018-09-11T07:59:10.162Z,98070.69
2018-09-11T08:04:05.128Z,98076.05
2018-09-11T08:09:00.066Z,98067.98
2018-09-11T08:13:55.157Z,98065.46
2018-09-11T08:18:50.020Z,98058.32
2018-09-11T08:23:44.917Z,98055.59
2018-09-11T08:28:39.850Z,98061.05
2018-09-11T08:33:34.717Z,98051.22
2018-09-11T08:38:29.481Z,98059.27
2018-09-11T08:43:24.245Z,98049.05
2018-09-11T08:48:19.073Z,98045.55
2018-09-11T08:53:13.860Z,98044.95
2018-09-11T08:58:08.671Z,98032.16
2018-09-11T09:03:03.541Z,98023.61
2018-09-11T09:07:58.396Z,98016.42
2018-09-11T09:12:53.286Z,98020.23
2018-09-11T09:17:48.185Z,98017.73
2018-09-11T09:22:43.024Z,98009.52
2018-09-11T09:27:37.973Z,98009.16
2018-09-11T09:32:32.869Z,98006.82
2018-09-11T09:37:27.885Z,98001.55
2018-09-11T09:42:22.903Z,97998.39
2018-09-11T09:47:17.834Z,97989.47
2018-09-11T09:52:12.705Z,97987.48
2018-09-11T09:57:07.625Z,97975.52
2018-09-11T10:02:04.701Z,97970.77
2018-09-11T10:06:59.732Z,97966.30
2018-09-11T10:11:54.757Z,97950.90
2018-09-11T10:16:49.619Z,97955.20
2018-09-11T10:21:44.553Z,97947.62
2018-09-11T10:26:39.436Z,97951.80
2018-09-11T10:31:34.355Z,97944.08
2018-09-11T10:36:29.300Z,97940.93
2018-09-11T10:41:30.651Z,97938.39
2018-09-11T10:46:25.427Z,97932.56
2018-09-11T10:51:20.219Z,97928.97
2018-09-11T10:56:15.087Z,97922.44
2018-09-11T11:01:09.837Z,97913.78
2018-09-11T11:06:04.672Z,97904.80
2018-09-11T11:10:59.477Z,97893.12
2018-09-11T11:15:54.249Z,97892.11
2018-09-11T11:20:49.190Z,97887.51
2018-09-11T11:25:44.057Z,97886.41
2018-09-11T11:30:38.913Z,97886.22
2018-09-11T11:35:33.768Z,97883.78
2018-09-11T11:40:28.698Z,97883.94
2018-09-11T11:45:23.732Z,97876.23
2018-09-11T11:50:18.621Z,97876.52
2018-09-11T11:55:13.620Z,97879.01
2018-09-11T12:00:08.446Z,97877.07
2018-09-11T12:05:03.327Z,97875.47
2018-09-11T12:09:58.220Z,97860.88
2018-09-11T12:14:52.986Z,97858.56
2018-09-11T12:19:47.756Z,97854.88
2018-09-11T12:24:42.519Z,97849.69
2018-09-11T12:29:37.272Z,97852.03
2018-09-11T12:34:32.025Z,97846.31
2018-09-11T12:39:26.834Z,97844.31
2018-09-11T12:44:21.740Z,97847.75
2018-09-11T12:49:20.767Z,97842.94
2018-09-11T12:54:15.562Z,97835.97
2018-09-11T12:59:10.412Z,97824.96
2018-09-11T13:04:05.346Z,97828.55
2018-09-11T13:09:00.181Z,97828.87
2018-09-11T13:13:54.967Z,97826.51
2018-09-11T13:18:49.783Z,97809.07
2018-09-11T13:23:47.425Z,97805.96
2018-09-11T13:28:42.205Z,97800.63
2018-09-11T13:33:37.037Z,97798.98
2018-09-11T13:38:31.815Z,97793.04
2018-09-11T13:43:26.690Z,97790.94
2018-09-11T13:48:21.568Z,97787.25
2018-09-11T13:53:16.418Z,97783.63
2018-09-11T13:58:11.273Z,97784.25
2018-09-11T14:03:06.242Z,97784.56
2018-09-11T14:08:01.186Z,97785.06
2018-09-11T14:12:56.080Z,97781.25
2018-09-11T14:17:50.997Z,97785.41
2018-09-11T14:22:45.831Z,97783.87
2018-09-11T14:27:40.641Z,97777.30
2018-09-11T14:32:35.478Z,97772.26
2018-09-11T14:37:30.298Z,97767.40
2018-09-11T14:42:25.086Z,97769.30
2018-09-11T14:47:19.845Z,97773.06
2018-09-11T14:52:14.661Z,97771.41
2018-09-11T14:57:09.494Z,97756.95
2018-09-11T15:02:04.289Z,97760.20
2018-09-11T15:06:59.454Z,97765.31
2018-09-11T15:11:54.343Z,97760.77
2018-09-11T15:16:49.218Z,97749.29
2018-09-11T15:21:44.122Z,97746.48
2018-09-11T15:26:39.047Z,97747.24
2018-09-11T15:31:33.921Z,97744.76
2018-09-11T15:36:28.869Z,97741.11
2018-09-11T15:41:23.732Z,97737.27
2018-09-11T15:46:18.598Z,97734.08
2018-09-11T15:51:13.466Z,97739.17
2018-09-11T15:56:08.653Z,97734.07
2018-09-11T16:01:03.614Z,97726.05
2018-09-11T16:05:58.541Z,97728.30
2018-09-11T16:10:53.450Z,97728.72
2018-09-11T16:15:48.368Z,97729.92
2018-09-11T16:20:43.228Z,97720.16
2018-09-11T16:25:38.050Z,97722.28
2018-09-11T16:30:32.900Z,97721.72
2018-09-11T16:35:28.564Z,97726.52
2018-09-11T16:40:23.371Z,97724.73
2018-09-11T16:45:18.201Z,97719.95
2018-09-11T16:50:13.024Z,97723.95
2018-09-11T16:55:07.945Z,97725.48
2018-09-11T17:00:02.801Z,97718.59
2018-09-11T17:04:57.666Z,97721.95
2018-09-11T17:09:52.453Z,97721.08
2018-09-11T17:14:47.282Z,97722.12
2018-09-11T17:19:42.520Z,97724.31
2018-09-11T17:24:40.411Z,97723.41
2018-09-11T17:29:35.322Z,97726.17
2018-09-11T17:34:30.289Z,97734.80
2018-09-11T17:39:25.196Z,97731.42
2018-09-11T17:44:20.147Z,97734.00
2018-09-11T17:49:15.137Z,97728.88
2018-09-11T17:54:09.939Z,97737.26
2018-09-11T17:59:05.371Z,97743.79
2018-09-11T18:04:00.457Z,97750.98
2018-09-11T18:08:55.673Z,97753.30
2018-09-11T18:13:52.895Z,97755.45
2018-09-11T18:18:47.860Z,97757.94
2018-09-11T18:23:42.861Z,97764.91
2018-09-11T18:28:37.747Z,97766.05
2018-09-11T18:33:32.640Z,97766.72
2018-09-11T18:38:27.543Z,97768.78
2018-09-11T18:43:22.457Z,97773.34
2018-09-11T18:48:17.408Z,97777.50
2018-09-11T18:53:12.304Z,97783.23
2018-09-11T18:58:07.339Z,97787.98
2018-09-11T19:03:03.049Z,97791.00
2018-09-11T19:07:58.386Z,97791.14
2018-09-11T19:12:53.314Z,97797.27
2018-09-11T19:17:48.121Z,97801.03
2018-09-11T19:22:43.018Z,97795.37
2018-09-11T19:27:37.894Z,97806.80
2018-09-11T19:32:32.848Z,97809.95
2018-09-11T19:37:27.729Z,97803.70
2018-09-11T19:42:22.724Z,97807.86
2018-09-11T19:47:17.594Z,97806.52
2018-09-11T19:52:12.428Z,97816.75
2018-09-11T19:57:07.380Z,97811.52
2018-09-11T20:02:02.334Z,97808.70
2018-09-11T20:06:57.281Z,97811.02
2018-09-11T20:11:52.169Z,97814.06
2018-09-11T20:16:47.188Z,97811.14
2018-09-11T20:21:42.164Z,97814.75
2018-09-11T20:26:37.102Z,97817.03
2018-09-11T20:31:32.077Z,97815.88
2018-09-11T20:36:27.017Z,97812.22
2018-09-11T20:41:22.106Z,97820.27
2018-09-11T20:46:17.100Z,97812.77
2018-09-11T20:51:11.918Z,97813.95
2018-09-11T20:56:06.791Z,97818.26
2018-09-11T21:01:01.913Z,97820.68
2018-09-11T21:05:56.812Z,97822.28
2018-09-11T21:10:51.612Z,97825.91
2018-09-11T21:15:46.437Z,97820.08
2018-09-11T21:20:41.418Z,97836.72
2018-09-11T21:25:36.199Z,97834.47
2018-09-11T21:30:31.033Z,97840.66
2018-09-11T21:35:25.839Z,97857.50
2018-09-11T21:40:20.644Z,97863.83
2018-09-11T21:45:15.414Z,97861.96
2018-09-11T21:50:10.242Z,97860.41
2018-09-11T21:55:05.101Z,97862.34
2018-09-11T21:59:59.961Z,97856.56
2018-09-11T22:04:54.762Z,97857.05
2018-09-11T22:09:49.588Z,97858.47
2018-09-11T22:14:44.447Z,97861.48
2018-09-11T22:19:39.272Z,97861.54
2018-09-11T22:24:34.090Z,97869.44
2018-09-11T22:29:28.882Z,97866.52
2018-09-11T22:34:23.676Z,97862.34
2018-09-11T22:39:18.450Z,97859.20
2018-09-11T22:44:13.235Z,97858.83
2018-09-11T22:49:08.053Z,97862.91
2018-09-11T22:54:02.852Z,97857.38
2018-09-11T22:58:57.643Z,97851.92
2018-09-11T23:03:52.468Z,97856.39
2018-09-11T23:08:47.262Z,97854.88
2018-09-11T23:13:42.153Z,97852.91
2018-09-11T23:18:36.982Z,97848.77
2018-09-11T23:23:31.773Z,97854.66
2018-09-11T23:28:26.545Z,97857.86
2018-09-11T23:33:21.337Z,97852.95
2018-09-11T23:38:16.253Z,97854.25
2018-09-11T23:43:11.207Z,97854.11
2018-09-11T23:48:06.345Z,97844.92
2018-09-11T23:53:01.275Z,97847.38
2018-09-11T23:57:56.273Z,97839.45
